createdAt,value
2023-03-26T00:01:30.209Z,18.07
2023-03-26T00:03:58.090Z,17.86
2023-03-26T00:06:30.731Z,17.68
2023-03-26T00:08:58.516Z,17.88
2023-03-26T00:11:28.479Z,17.57
2023-03-26T00:13:57.744Z,17.22
2023-03-26T00:16:27.969Z,17.20
2023-03-26T00:18:54.822Z,17.58
2023-03-26T00:21:28.154Z,17.84
2023-03-26T00:24:01.057Z,17.73
2023-03-26T00:26:31.087Z,17.35
2023-03-26T00:28:58.644Z,17.57
2023-03-26T00:31:25.330Z,17.23
2023-03-26T00:33:56.008Z,17.74
2023-03-26T00:36:27.821Z,17.79
2023-03-26T00:38:55.056Z,17.85
2023-03-26T00:41:31.175Z,17.12
2023-03-26T00:44:00.014Z,17.28
2023-03-26T00:46:31.194Z,16.81
2023-03-26T00:49:04.250Z,17.26
2023-03-26T00:51:31.955Z,17.45
2023-03-26T00:54:00.056Z,17.29
2023-03-26T00:56:26.989Z,17.29
2023-03-26T00:58:53.649Z,16.68
2023-03-26T01:01:28.054Z,16.51
2023-03-26T01:04:08.946Z,16.33
2023-03-26T01:06:42.260Z,16.73
2023-03-26T01:09:20.890Z,16.95
2023-03-26T01:11:49.728Z,16.44
2023-03-26T01:14:20.993Z,16.83
2023-03-26T01:16:52.493Z,16.84
2023-03-26T01:19:44.877Z,16.82
2023-03-26T01:22:18.794Z,16.85
2023-03-26T01:24:52.248Z,16.76
2023-03-26T01:27:35.985Z,16.49
2023-03-26T01:30:13.046Z,16.69
2023-03-26T01:32:51.981Z,16.86
2023-03-26T01:35:31.843Z,16.90
2023-03-26T01:38:22.816Z,16.79
2023-03-26T01:41:01.899Z,16.29
2023-03-26T01:43:36.813Z,16.50
2023-03-26T01:46:08.313Z,16.49
2023-03-26T01:48:38.256Z,16.48
2023-03-26T01:51:06.646Z,16.63
2023-03-26T01:53:37.435Z,16.51
2023-03-26T01:56:30.587Z,16.14
2023-03-26T01:59:03.872Z,16.35
2023-03-26T02:01:54.996Z,16.36
2023-03-26T02:04:28.708Z,16.34
2023-03-26T02:07:43.395Z,16.52
2023-03-26T02:10:21.158Z,16.44
2023-03-26T02:12:48.298Z,16.47
2023-03-26T02:15:14.915Z,16.43
2023-03-26T02:17:41.944Z,16.10
2023-03-26T02:20:14.570Z,16.30
2023-03-26T02:22:45.792Z,16.42
2023-03-26T02:25:19.402Z,16.27
2023-03-26T02:27:49.716Z,16.50
2023-03-26T02:30:25.925Z,16.63
2023-03-26T02:32:59.120Z,16.37
2023-03-26T02:35:29.834Z,16.82
2023-03-26T02:37:59.364Z,16.58
2023-03-26T02:40:26.317Z,16.38
2023-03-26T02:42:53.089Z,16.29
2023-03-26T02:45:21.182Z,16.17
2023-03-26T02:48:07.999Z,16.81
2023-03-26T02:50:50.247Z,16.79
2023-03-26T02:53:29.783Z,16.74
2023-03-26T02:56:14.562Z,16.59
2023-03-26T02:58:53.281Z,16.79
2023-03-26T03:01:21.294Z,16.94
2023-03-26T03:03:52.031Z,16.85
2023-03-26T03:06:30.919Z,16.82
2023-03-26T03:08:58.814Z,17.08
2023-03-26T03:11:39.407Z,17.34
2023-03-26T03:14:07.181Z,17.21
2023-03-26T03:16:34.756Z,17.46
2023-03-26T03:19:10.754Z,17.08
2023-03-26T03:21:39.533Z,17.32
2023-03-26T03:24:10.143Z,17.29
2023-03-26T03:26:45.704Z,17.51
2023-03-26T03:29:29.952Z,16.90
2023-03-26T03:32:01.947Z,17.34
2023-03-26T03:34:44.246Z,16.96
2023-03-26T03:37:11.822Z,16.78
2023-03-26T03:39:47.926Z,16.75
2023-03-26T03:42:19.441Z,16.24
2023-03-26T03:44:47.962Z,16.95
2023-03-26T03:47:46.499Z,16.88
2023-03-26T03:50:15.668Z,17.08
2023-03-26T03:52:55.914Z,17.31
2023-03-26T03:55:24.225Z,17.52
2023-03-26T03:57:53.963Z,17.30
2023-03-26T04:00:24.354Z,17.05
2023-03-26T04:03:14.239Z,17.30
2023-03-26T04:05:43.688Z,17.62
2023-03-26T04:08:10.898Z,17.88
2023-03-26T04:10:45.665Z,17.60
2023-03-26T04:13:13.744Z,17.38
2023-03-26T04:15:57.886Z,17.54
2023-03-26T04:18:26.325Z,17.56
2023-03-26T04:20:55.629Z,17.68
2023-03-26T04:23:26.701Z,17.67
2023-03-26T04:26:10.515Z,17.76
2023-03-26T04:29:02.808Z,17.89
2023-03-26T04:31:31.185Z,17.86
2023-03-26T04:34:07.011Z,18.27
2023-03-26T04:36:42.705Z,18.16
2023-03-26T04:39:13.449Z,18.04
2023-03-26T04:41:59.055Z,17.72
2023-03-26T04:44:34.935Z,17.48
2023-03-26T04:47:06.386Z,17.56
2023-03-26T04:49:42.321Z,17.35
2023-03-26T04:52:12.645Z,17.62
2023-03-26T04:54:57.797Z,17.68
2023-03-26T04:57:43.701Z,17.71
2023-03-26T05:00:20.375Z,17.87
2023-03-26T05:02:56.277Z,17.96
2023-03-26T05:05:24.667Z,18.04
2023-03-26T05:07:51.784Z,18.14
2023-03-26T05:10:21.372Z,18.23
2023-03-26T05:12:56.402Z,18.31
2023-03-26T05:15:29.321Z,18.23
2023-03-26T05:17:58.677Z,18.34
2023-03-26T05:20:31.199Z,18.14
2023-03-26T05:22:58.113Z,17.77
2023-03-26T05:25:30.459Z,17.85
2023-03-26T05:27:58.416Z,18.08
2023-03-26T05:30:31.403Z,18.19
2023-03-26T05:33:02.720Z,18.05
2023-03-26T05:35:35.577Z,17.82
2023-03-26T05:38:02.416Z,18.06
2023-03-26T05:40:29.232Z,18.02
2023-03-26T05:43:04.464Z,17.74
2023-03-26T05:45:41.001Z,17.71
2023-03-26T05:48:29.862Z,17.52
2023-03-26T05:50:58.048Z,17.70
2023-03-26T05:53:27.783Z,17.90
2023-03-26T05:56:13.157Z,18.22
2023-03-26T05:58:58.466Z,18.26
2023-03-26T06:01:51.300Z,18.31
2023-03-26T06:04:31.858Z,17.75
2023-03-26T06:07:19.879Z,17.92
2023-03-26T06:10:07.593Z,18.04
2023-03-26T06:12:34.568Z,18.25
2023-03-26T06:15:01.282Z,18.52
2023-03-26T06:18:00.387Z,18.45
2023-03-26T06:20:47.103Z,18.71
2023-03-26T06:23:23.906Z,18.62
2023-03-26T06:26:27.462Z,18.95
2023-03-26T06:29:14.731Z,19.05
2023-03-26T06:31:59.576Z,18.86
2023-03-26T06:34:44.963Z,18.88
2023-03-26T06:37:11.821Z,19.11
2023-03-26T06:39:38.606Z,19.17
2023-03-26T06:42:12.600Z,19.21
2023-03-26T06:45:03.566Z,19.39
2023-03-26T06:47:48.809Z,19.24
2023-03-26T06:50:15.840Z,19.41
2023-03-26T06:53:11.297Z,19.43
2023-03-26T06:55:41.786Z,18.80
2023-03-26T06:58:20.434Z,18.92
2023-03-26T07:01:06.669Z,17.81
2023-03-26T07:03:52.296Z,17.80
2023-03-26T07:06:37.783Z,17.49
2023-03-26T07:09:23.410Z,17.53
2023-03-26T07:12:09.382Z,17.52
2023-03-26T07:14:57.905Z,17.62
2023-03-26T07:17:52.833Z,18.00
2023-03-26T07:20:26.851Z,17.88
2023-03-26T07:22:54.042Z,17.62
2023-03-26T07:25:50.371Z,17.95
2023-03-26T07:29:04.770Z,18.22
2023-03-26T07:32:20.176Z,18.08
2023-03-26T07:35:14.273Z,18.02
2023-03-26T07:38:12.660Z,18.19
2023-03-26T07:41:17.710Z,17.78
2023-03-26T07:44:09.774Z,18.24
2023-03-26T07:46:55.702Z,17.75
2023-03-26T07:49:47.539Z,17.82
2023-03-26T07:52:40.853Z,18.11
2023-03-26T07:55:17.863Z,18.19
2023-03-26T07:58:28.495Z,18.45
2023-03-26T08:01:34.531Z,18.18
2023-03-26T08:04:23.904Z,18.53
2023-03-26T08:07:28.362Z,18.65
2023-03-26T08:10:33.306Z,18.76
2023-03-26T08:13:05.214Z,18.45
2023-03-26T08:15:43.998Z,18.82
2023-03-26T08:18:44.647Z,19.19
2023-03-26T08:21:17.456Z,19.28
2023-03-26T08:24:13.428Z,19.31
2023-03-26T08:26:57.524Z,19.37
2023-03-26T08:29:45.189Z,19.28
2023-03-26T08:32:17.956Z,19.46
2023-03-26T08:34:45.159Z,19.57
2023-03-26T08:37:12.500Z,19.29
2023-03-26T08:39:41.787Z,19.56
2023-03-26T08:42:46.228Z,19.70
2023-03-26T08:45:18.787Z,19.18
2023-03-26T08:48:29.953Z,19.15
2023-03-26T08:51:18.485Z,19.06
2023-03-26T08:53:51.178Z,18.81
2023-03-26T08:56:37.496Z,18.42
2023-03-26T08:59:25.781Z,18.71
2023-03-26T09:02:34.500Z,18.75
2023-03-26T09:05:36.220Z,18.93
2023-03-26T09:08:35.628Z,19.18
2023-03-26T09:11:16.625Z,19.54
2023-03-26T09:14:10.579Z,19.69
2023-03-26T09:16:55.645Z,19.54
2023-03-26T09:19:25.281Z,19.43
2023-03-26T09:22:13.721Z,18.79
2023-03-26T09:24:46.583Z,19.55
2023-03-26T09:27:38.164Z,19.90
2023-03-26T09:30:43.259Z,19.28
2023-03-26T09:33:32.203Z,19.33
2023-03-26T09:36:49.979Z,18.80
2023-03-26T09:39:33.376Z,19.24
2023-03-26T09:42:04.972Z,19.39
2023-03-26T09:44:55.549Z,18.69
2023-03-26T09:47:53.583Z,18.51
2023-03-26T09:50:41.297Z,18.89
2023-03-26T09:53:16.610Z,19.13
2023-03-26T09:55:43.424Z,18.87
2023-03-26T09:58:38.814Z,18.92
2023-03-26T10:01:25.191Z,19.12
2023-03-26T10:04:07.252Z,19.33
2023-03-26T10:06:53.010Z,19.23
2023-03-26T10:09:34.314Z,18.96
2023-03-26T10:12:10.777Z,18.27
2023-03-26T10:14:54.852Z,18.56
2023-03-26T10:17:29.017Z,19.20
2023-03-26T10:20:30.974Z,19.05
2023-03-26T10:23:30.394Z,18.81
2023-03-26T10:26:11.382Z,18.75
2023-03-26T10:28:59.504Z,19.33
2023-03-26T10:32:14.304Z,19.01
2023-03-26T10:34:56.454Z,19.10
2023-03-26T10:37:38.494Z,18.41
2023-03-26T10:40:23.845Z,17.87
2023-03-26T10:43:00.281Z,18.40
2023-03-26T10:45:44.125Z,18.93
2023-03-26T10:48:42.007Z,18.92
2023-03-26T10:51:27.493Z,18.18
2023-03-26T10:53:58.445Z,18.59
2023-03-26T10:56:54.355Z,19.00
2023-03-26T10:59:21.601Z,19.07
2023-03-26T11:02:21.015Z,19.18
2023-03-26T11:05:19.453Z,19.22
2023-03-26T11:08:19.400Z,18.48
2023-03-26T11:11:21.216Z,17.89
2023-03-26T11:14:04.170Z,18.67
2023-03-26T11:16:38.752Z,18.77
2023-03-26T11:19:33.459Z,18.87
2023-03-26T11:22:11.307Z,18.86
2023-03-26T11:24:47.231Z,19.12
2023-03-26T11:27:33.859Z,19.06
2023-03-26T11:30:23.589Z,18.97
2023-03-26T11:32:59.190Z,19.10
2023-03-26T11:35:39.561Z,19.43
2023-03-26T11:38:32.894Z,19.10
2023-03-26T11:41:01.720Z,19.30
2023-03-26T11:43:52.407Z,18.71
2023-03-26T11:46:22.934Z,18.60
2023-03-26T11:49:06.680Z,18.51
2023-03-26T11:51:36.207Z,18.87
2023-03-26T11:54:08.238Z,18.62
2023-03-26T11:57:04.711Z,18.58
2023-03-26T11:59:57.263Z,19.10
2023-03-26T12:02:38.742Z,18.74
2023-03-26T12:05:27.337Z,18.89
2023-03-26T12:07:59.663Z,18.64
2023-03-26T12:10:39.290Z,19.18
2023-03-26T12:13:20.647Z,18.75
2023-03-26T12:15:47.736Z,19.37
2023-03-26T12:18:26.092Z,18.39
2023-03-26T12:21:23.479Z,19.09
2023-03-26T12:23:58.198Z,19.30
2023-03-26T12:26:39.409Z,19.48
2023-03-26T12:29:18.105Z,19.08
2023-03-26T12:32:17.023Z,18.28
2023-03-26T12:34:44.039Z,18.05
2023-03-26T12:37:37.429Z,18.50
2023-03-26T12:40:32.644Z,18.99
2023-03-26T12:44:51.385Z,18.23
2023-03-26T12:47:54.422Z,18.56
2023-03-26T12:48:41.541Z,18.69
2023-03-26T12:51:37.820Z,18.80
2023-03-26T12:54:04.549Z,18.60
2023-03-26T12:57:12.312Z,17.87
2023-03-26T13:00:09.125Z,18.14
2023-03-26T13:03:03.980Z,18.01
2023-03-26T13:05:50.774Z,18.54
2023-03-26T13:08:46.745Z,18.48
2023-03-26T13:11:20.160Z,18.10
2023-03-26T13:14:16.273Z,17.78
2023-03-26T13:16:56.756Z,17.55
2023-03-26T13:19:47.842Z,17.49
2023-03-26T13:22:22.600Z,16.95
2023-03-26T13:24:55.869Z,17.14
2023-03-26T13:27:31.137Z,16.15
2023-03-26T13:30:19.619Z,17.04
2023-03-26T13:32:58.621Z,16.91
2023-03-26T13:35:37.266Z,16.78
2023-03-26T13:38:13.154Z,17.12
2023-03-26T13:40:59.251Z,16.87
2023-03-26T13:43:31.714Z,16.41
2023-03-26T13:46:21.856Z,16.75
2023-03-26T13:48:59.921Z,16.19
2023-03-26T13:51:52.980Z,16.45
2023-03-26T13:54:32.341Z,16.25
2023-03-26T13:57:25.397Z,16.35
2023-03-26T14:00:00.149Z,16.51
2023-03-26T14:02:39.678Z,16.31
2023-03-26T14:05:21.761Z,16.36
2023-03-26T14:07:54.849Z,16.06
2023-03-26T14:10:26.543Z,16.27
2023-03-26T14:13:24.302Z,15.81
2023-03-26T14:16:37.481Z,15.70
2023-03-26T14:19:58.841Z,16.22
2023-03-26T14:22:37.989Z,16.04
2023-03-26T14:25:42.064Z,15.74
2023-03-26T14:28:47.068Z,15.81
2023-03-26T14:31:38.296Z,16.40
2023-03-26T14:34:23.518Z,16.47
2023-03-26T14:37:06.131Z,16.60
2023-03-26T14:40:14.833Z,16.96
2023-03-26T14:42:46.985Z,15.97
2023-03-26T14:45:50.062Z,15.36
2023-03-26T14:48:42.150Z,16.34
2023-03-26T14:51:16.483Z,16.69
2023-03-26T14:53:54.270Z,16.47
2023-03-26T14:56:30.502Z,17.28
2023-03-26T14:59:18.516Z,16.56
2023-03-26T15:02:09.585Z,17.13
2023-03-26T15:04:54.157Z,16.47
2023-03-26T15:07:50.163Z,16.98
2023-03-26T15:10:54.200Z,17.18
2023-03-26T15:13:48.890Z,16.87
2023-03-26T15:16:34.358Z,17.57
2023-03-26T15:19:10.517Z,17.40
2023-03-26T15:22:18.937Z,17.17
2023-03-26T15:25:01.048Z,17.91
2023-03-26T15:28:08.077Z,17.07
2023-03-26T15:31:07.622Z,16.98
2023-03-26T15:33:43.979Z,17.44
2023-03-26T15:36:45.509Z,16.81
2023-03-26T15:39:19.261Z,16.73
2023-03-26T15:42:23.677Z,16.93
2023-03-26T15:44:54.051Z,17.12
2023-03-26T15:47:43.392Z,16.72
2023-03-26T15:50:27.048Z,16.98
2023-03-26T15:53:25.842Z,17.04
2023-03-26T15:55:57.773Z,16.40
2023-03-26T15:58:31.752Z,16.62
2023-03-26T16:01:23.303Z,16.76
2023-03-26T16:03:56.366Z,16.53
2023-03-26T16:06:41.427Z,16.32
2023-03-26T16:09:24.281Z,15.94
2023-03-26T16:12:25.916Z,16.42
2023-03-26T16:15:13.608Z,16.29
2023-03-26T16:18:16.653Z,16.36
2023-03-26T16:21:01.682Z,16.30
2023-03-26T16:23:50.299Z,16.60
2023-03-26T16:26:39.366Z,15.41
2023-03-26T16:29:25.034Z,14.88
2023-03-26T16:32:26.135Z,15.30
2023-03-26T16:35:23.782Z,15.42
2023-03-26T16:38:14.700Z,15.35
2023-03-26T16:41:15.747Z,15.53
2023-03-26T16:43:58.750Z,15.08
2023-03-26T16:46:39.560Z,14.87
2023-03-26T16:49:47.433Z,15.15
2023-03-26T16:52:40.051Z,14.99
2023-03-26T16:55:35.188Z,15.28
2023-03-26T16:58:11.054Z,15.11
2023-03-26T17:00:52.481Z,15.68
2023-03-26T17:03:47.647Z,14.77
2023-03-26T17:06:28.377Z,14.96
2023-03-26T17:08:59.617Z,14.63
2023-03-26T17:11:58.293Z,14.82
2023-03-26T17:14:48.969Z,14.76
2023-03-26T17:17:46.591Z,14.42
2023-03-26T17:20:19.604Z,14.69
2023-03-26T17:22:57.685Z,14.88
2023-03-26T17:25:44.595Z,14.56
2023-03-26T17:28:44.016Z,14.65
2023-03-26T17:31:23.784Z,14.79
2023-03-26T17:33:50.882Z,14.54
2023-03-26T17:36:31.345Z,14.93
2023-03-26T17:39:18.350Z,14.70
2023-03-26T17:41:55.697Z,14.19
2023-03-26T17:44:49.957Z,14.35
2023-03-26T17:47:26.060Z,14.35
2023-03-26T17:50:23.041Z,14.05
2023-03-26T17:52:58.346Z,13.95
2023-03-26T17:55:32.045Z,14.23
2023-03-26T17:58:05.269Z,13.97
2023-03-26T18:00:41.776Z,13.59
2023-03-26T18:03:08.768Z,13.71
2023-03-26T18:05:39.406Z,13.58
2023-03-26T18:08:45.295Z,13.65
2023-03-26T18:11:31.146Z,13.69
2023-03-26T18:14:20.030Z,14.05
2023-03-26T18:16:53.202Z,13.69
2023-03-26T18:19:23.079Z,13.48
2023-03-26T18:21:57.072Z,13.53
2023-03-26T18:24:39.474Z,13.42
2023-03-26T18:27:12.507Z,13.32
2023-03-26T18:29:46.227Z,13.33
2023-03-26T18:32:15.304Z,13.48
2023-03-26T18:34:57.683Z,12.87
2023-03-26T18:37:29.264Z,12.72
2023-03-26T18:39:57.281Z,13.07
2023-03-26T18:42:25.367Z,13.18
2023-03-26T18:44:53.797Z,12.85
2023-03-26T18:47:28.126Z,12.74
2023-03-26T18:49:57.455Z,12.46
2023-03-26T18:52:27.168Z,13.13
2023-03-26T18:54:54.389Z,13.09
2023-03-26T18:57:27.701Z,12.75
2023-03-26T19:00:07.512Z,12.94
2023-03-26T19:02:35.085Z,13.14
2023-03-26T19:05:03.556Z,13.47
2023-03-26T19:07:30.581Z,12.68
2023-03-26T19:10:00.280Z,12.91
2023-03-26T19:12:37.431Z,12.95
2023-03-26T19:15:09.547Z,12.91
2023-03-26T19:18:07.747Z,12.93
2023-03-26T19:20:58.660Z,12.42
2023-03-26T19:23:31.821Z,12.26
2023-03-26T19:26:01.795Z,12.57
2023-03-26T19:28:32.141Z,12.68
2023-03-26T19:31:08.182Z,12.38
2023-03-26T19:33:43.001Z,12.09
2023-03-26T19:36:33.754Z,12.92
2023-03-26T19:39:02.315Z,12.80
2023-03-26T19:41:35.900Z,12.37
2023-03-26T19:44:20.733Z,12.95
2023-03-26T19:46:53.382Z,12.42
2023-03-26T19:49:53.059Z,12.99
2023-03-26T19:52:34.016Z,12.65
2023-03-26T19:55:01.532Z,12.78
2023-03-26T19:57:30.354Z,13.07
2023-03-26T19:59:57.933Z,12.85
2023-03-26T20:02:26.035Z,13.00
2023-03-26T20:04:52.854Z,12.62
2023-03-26T20:07:35.787Z,12.80
2023-03-26T20:10:05.804Z,12.62
2023-03-26T20:12:35.353Z,12.76
2023-03-26T20:15:02.198Z,12.42
2023-03-26T20:17:30.955Z,13.10
2023-03-26T20:19:57.767Z,12.12
2023-03-26T20:22:24.582Z,12.27
2023-03-26T20:24:51.670Z,12.41
2023-03-26T20:27:19.303Z,12.28
2023-03-26T20:29:46.542Z,11.86
2023-03-26T20:32:26.390Z,11.89
2023-03-26T20:34:54.166Z,12.37
2023-03-26T20:37:20.856Z,11.76
2023-03-26T20:39:48.241Z,11.72
2023-03-26T20:42:16.420Z,11.66
2023-03-26T20:44:44.371Z,11.74
2023-03-26T20:47:11.571Z,11.57
2023-03-26T20:49:39.164Z,11.47
2023-03-26T20:52:07.252Z,11.47
2023-03-26T20:54:35.709Z,11.44
2023-03-26T20:57:02.943Z,11.44
2023-03-26T20:59:31.173Z,11.37
2023-03-26T21:01:59.498Z,11.05
2023-03-26T21:04:27.354Z,11.28
2023-03-26T21:07:11.181Z,11.34
2023-03-26T21:09:44.946Z,11.44
2023-03-26T21:12:43.340Z,11.53
2023-03-26T21:15:22.376Z,11.48
2023-03-26T21:17:52.413Z,11.65
2023-03-26T21:20:21.416Z,11.08
2023-03-26T21:23:19.560Z,11.28
2023-03-26T21:26:42.976Z,11.21
2023-03-26T21:29:10.398Z,11.49
2023-03-26T21:31:40.532Z,11.77
2023-03-26T21:34:08.414Z,12.03
2023-03-26T21:36:36.810Z,11.86
2023-03-26T21:39:06.196Z,11.49
2023-03-26T21:41:44.878Z,11.37
2023-03-26T21:44:11.823Z,11.45
2023-03-26T21:46:42.140Z,11.81
2023-03-26T21:49:10.333Z,11.46
2023-03-26T21:51:37.988Z,11.29
2023-03-26T21:54:26.659Z,11.69
2023-03-26T21:57:05.956Z,11.51
2023-03-26T21:59:51.875Z,11.52
2023-03-26T22:02:24.696Z,11.46
2023-03-26T22:05:04.090Z,11.49
2023-03-26T22:07:54.872Z,11.20
2023-03-26T22:10:21.861Z,11.14
2023-03-26T22:12:49.910Z,11.53
2023-03-26T22:15:18.348Z,11.85
2023-03-26T22:17:46.647Z,11.67
2023-03-26T22:20:14.888Z,11.46
2023-03-26T22:22:48.654Z,11.70
2023-03-26T22:25:16.819Z,11.06
2023-03-26T22:27:45.205Z,11.17
2023-03-26T22:30:12.959Z,11.28
2023-03-26T22:32:40.143Z,11.31
2023-03-26T22:35:07.521Z,11.64
2023-03-26T22:37:36.209Z,11.26
2023-03-26T22:40:08.336Z,11.53
2023-03-26T22:42:36.335Z,11.33
2023-03-26T22:45:04.540Z,11.34
2023-03-26T22:47:33.831Z,11.51
2023-03-26T22:50:02.005Z,11.71
2023-03-26T22:52:30.513Z,11.42
2023-03-26T22:54:57.312Z,11.64
2023-03-26T22:57:24.360Z,11.53
2023-03-26T22:59:52.025Z,11.62
2023-03-26T23:02:20.072Z,11.31
2023-03-26T23:04:47.807Z,11.46
2023-03-26T23:07:15.240Z,11.30
2023-03-26T23:09:42.088Z,11.76
2023-03-26T23:12:08.747Z,11.54
2023-03-26T23:14:36.255Z,11.93
2023-03-26T23:17:03.812Z,11.68
2023-03-26T23:19:30.549Z,12.18
2023-03-26T23:21:57.545Z,11.72
2023-03-26T23:24:26.457Z,12.25
2023-03-26T23:26:53.354Z,12.15
2023-03-26T23:29:20.250Z,12.15
2023-03-26T23:31:47.536Z,11.92
2023-03-26T23:34:15.389Z,11.86
2023-03-26T23:36:42.815Z,11.49
2023-03-26T23:39:10.906Z,11.49
2023-03-26T23:41:38.031Z,11.62
2023-03-26T23:44:05.424Z,11.68
2023-03-26T23:46:35.090Z,11.47
2023-03-26T23:49:04.747Z,12.08
2023-03-26T23:51:32.601Z,12.02
2023-03-26T23:54:00.938Z,12.35
2023-03-26T23:56:29.849Z,11.87
2023-03-26T23:58:56.606Z,11.69
